createdAt,value
2023-02-13T00:01:06.626Z,46.20
2023-02-13T00:03:36.057Z,51.03
2023-02-13T00:06:04.176Z,50.67
2023-02-13T00:08:32.216Z,47.40
2023-02-13T00:11:00.361Z,48.85
2023-02-13T00:13:28.512Z,49.85
2023-02-13T00:15:58.103Z,47.15
2023-02-13T00:18:26.257Z,49.58
2023-02-13T00:21:04.236Z,47.58
2023-02-13T00:23:33.663Z,49.63
2023-02-13T00:26:05.832Z,43.03
2023-02-13T00:28:33.959Z,47.10
2023-02-13T00:31:07.092Z,47.42
2023-02-13T00:33:35.783Z,49.42
2023-02-13T00:36:07.919Z,46.72
2023-02-13T00:38:36.668Z,47.72
2023-02-13T00:41:04.994Z,49.00
2023-02-13T00:43:33.890Z,48.20
2023-02-13T00:46:02.171Z,49.58
2023-02-13T00:48:32.238Z,48.28
2023-02-13T00:51:00.534Z,46.92
2023-02-13T00:53:30.073Z,43.83
2023-02-13T00:55:58.473Z,48.22
2023-02-13T00:58:27.032Z,44.22
2023-02-13T01:00:56.545Z,45.20
2023-02-13T01:03:25.098Z,46.60
2023-02-13T01:05:53.508Z,44.47
2023-02-13T01:08:21.733Z,47.00
2023-02-13T01:10:51.613Z,45.47
2023-02-13T01:13:19.878Z,46.35
2023-02-13T01:15:48.897Z,48.17
2023-02-13T01:18:18.767Z,48.90
2023-02-13T01:20:56.486Z,50.00
2023-02-13T01:23:24.729Z,48.15
2023-02-13T01:25:54.203Z,48.08
2023-02-13T01:28:22.280Z,50.17
2023-02-13T01:30:55.308Z,48.17
2023-02-13T01:33:23.811Z,46.80
2023-02-13T01:35:52.547Z,45.22
2023-02-13T01:38:20.795Z,47.22
2023-02-13T01:40:49.806Z,46.58
2023-02-13T01:43:19.869Z,45.70
2023-02-13T01:45:51.381Z,43.55
2023-02-13T01:48:22.312Z,45.50
2023-02-13T01:50:53.351Z,43.90
2023-02-13T01:53:28.366Z,42.35
2023-02-13T01:55:59.726Z,37.22
2023-02-13T01:58:33.664Z,35.28
2023-02-13T02:01:03.100Z,36.95
2023-02-13T02:03:36.310Z,35.10
2023-02-13T02:06:06.090Z,34.35
2023-02-13T02:08:36.372Z,35.92
2023-02-13T02:11:11.694Z,35.80
2023-02-13T02:13:41.456Z,30.38
2023-02-13T02:16:09.661Z,32.83
2023-02-13T02:18:37.751Z,31.08
2023-02-13T02:21:43.665Z,32.67
2023-02-13T02:24:29.926Z,27.88
2023-02-13T02:27:36.923Z,28.13
2023-02-13T02:30:38.107Z,29.63
2023-02-13T02:33:19.776Z,27.92
2023-02-13T02:36:01.173Z,26.23
2023-02-13T02:38:42.585Z,27.75
2023-02-13T02:41:36.215Z,27.58
2023-02-13T02:44:17.482Z,26.58
2023-02-13T02:47:11.949Z,27.08
2023-02-13T02:49:59.751Z,28.35
2023-02-13T02:52:41.721Z,27.50
2023-02-13T02:55:18.376Z,25.50
2023-02-13T02:58:08.704Z,23.55
2023-02-13T03:00:58.346Z,24.38
2023-02-13T03:03:45.835Z,25.77
2023-02-13T03:06:19.958Z,25.17
2023-02-13T03:09:11.270Z,27.13
2023-02-13T03:11:57.912Z,24.85
2023-02-13T03:14:28.564Z,25.30
2023-02-13T03:17:16.623Z,26.92
2023-02-13T03:20:13.741Z,24.90
2023-02-13T03:22:54.271Z,24.83
2023-02-13T03:25:34.330Z,26.38
2023-02-13T03:28:30.298Z,23.73
2023-02-13T03:31:05.099Z,23.42
2023-02-13T03:33:57.139Z,25.73
2023-02-13T03:36:52.346Z,24.00
2023-02-13T03:39:25.130Z,22.45
2023-02-13T03:41:59.020Z,22.85
2023-02-13T03:44:31.446Z,20.35
2023-02-13T03:47:02.576Z,23.60
2023-02-13T03:49:52.068Z,22.40
2023-02-13T03:52:25.835Z,22.13
2023-02-13T03:55:15.833Z,21.75
2023-02-13T03:58:03.219Z,21.80
2023-02-13T04:00:40.702Z,23.52
2023-02-13T04:03:15.423Z,20.98
2023-02-13T04:05:48.195Z,22.25
2023-02-13T04:08:16.592Z,22.10
2023-02-13T04:10:53.302Z,22.02
2023-02-13T04:13:29.107Z,20.63
2023-02-13T04:16:02.538Z,19.88
2023-02-13T04:18:32.965Z,22.08
2023-02-13T04:21:03.954Z,19.17
2023-02-13T04:23:31.995Z,20.27
2023-02-13T04:26:03.504Z,21.13
2023-02-13T04:28:31.627Z,19.90
2023-02-13T04:31:00.344Z,20.88
2023-02-13T04:33:28.669Z,20.10
2023-02-13T04:35:56.897Z,19.20
2023-02-13T04:38:25.110Z,20.48
2023-02-13T04:40:53.153Z,20.40
2023-02-13T04:43:22.921Z,20.15
2023-02-13T04:45:51.327Z,19.83
2023-02-13T04:48:19.488Z,19.92
2023-02-13T04:50:48.026Z,20.95
2023-02-13T04:53:16.085Z,21.33
2023-02-13T04:55:44.394Z,20.10
2023-02-13T04:58:12.540Z,20.73
2023-02-13T05:00:42.118Z,20.77
2023-02-13T05:03:12.532Z,22.30
2023-02-13T05:05:41.232Z,20.77
2023-02-13T05:08:10.200Z,20.73
2023-02-13T05:10:38.630Z,21.50
2023-02-13T05:13:06.859Z,23.40
2023-02-13T05:15:35.127Z,22.50
2023-02-13T05:18:04.662Z,21.80
2023-02-13T05:20:32.759Z,20.30
2023-02-13T05:23:18.072Z,21.13
2023-02-13T05:25:46.163Z,19.80
2023-02-13T05:28:28.156Z,20.08
2023-02-13T05:30:56.665Z,19.60
2023-02-13T05:33:26.526Z,18.75
2023-02-13T05:35:54.667Z,19.70
2023-02-13T05:38:22.680Z,21.45
2023-02-13T05:40:50.736Z,21.45
2023-02-13T05:43:18.783Z,19.60
2023-02-13T05:45:46.908Z,18.70
2023-02-13T05:48:14.985Z,20.63
2023-02-13T05:50:44.532Z,20.00
2023-02-13T05:53:12.562Z,21.23
2023-02-13T05:55:40.961Z,20.42
2023-02-13T05:58:09.531Z,18.77
2023-02-13T06:00:37.651Z,20.70
2023-02-13T06:03:05.784Z,21.20
2023-02-13T06:05:33.878Z,20.50
2023-02-13T06:08:03.339Z,18.90
2023-02-13T06:10:31.513Z,19.35
2023-02-13T06:12:59.566Z,18.83
2023-02-13T06:15:27.659Z,20.25
2023-02-13T06:17:55.763Z,19.58
2023-02-13T06:20:24.202Z,19.45
2023-02-13T06:22:52.591Z,19.98
2023-02-13T06:25:22.472Z,19.33
2023-02-13T06:27:50.604Z,18.92
2023-02-13T06:30:19.920Z,21.45
2023-02-13T06:32:49.109Z,20.65
2023-02-13T06:35:17.460Z,18.35
2023-02-13T06:37:45.924Z,19.05
2023-02-13T06:40:15.733Z,56.08
2023-02-13T06:42:46.000Z,74.97
2023-02-13T06:45:14.488Z,27.92
2023-02-13T06:47:43.670Z,21.02
2023-02-13T06:50:13.692Z,22.27
2023-02-13T06:52:46.265Z,21.40
2023-02-13T06:55:14.559Z,19.20
2023-02-13T06:57:44.452Z,19.73
2023-02-13T07:00:15.032Z,18.90
2023-02-13T07:02:43.935Z,20.45
2023-02-13T07:05:12.789Z,18.73
2023-02-13T07:07:42.833Z,19.95
2023-02-13T07:10:13.524Z,19.08
2023-02-13T07:12:41.620Z,18.25
2023-02-13T07:15:11.750Z,18.88
2023-02-13T07:17:39.777Z,16.75
2023-02-13T07:20:10.434Z,20.95
2023-02-13T07:22:38.558Z,18.65
2023-02-13T07:25:07.193Z,19.02
2023-02-13T07:27:35.322Z,20.08
2023-02-13T07:30:03.392Z,19.60
2023-02-13T07:32:32.832Z,20.95
2023-02-13T07:35:02.322Z,20.63
2023-02-13T07:37:31.189Z,26.38
2023-02-13T07:39:59.360Z,21.80
2023-02-13T07:42:27.562Z,40.45
2023-02-13T07:44:55.658Z,26.00
2023-02-13T07:47:23.778Z,26.83
2023-02-13T07:49:54.815Z,40.45
2023-02-13T07:52:22.909Z,31.35
2023-02-13T07:54:51.445Z,39.80
2023-02-13T07:57:19.561Z,30.70
2023-02-13T07:59:47.616Z,27.20
2023-02-13T08:02:16.746Z,27.87
2023-02-13T08:04:46.522Z,28.02
2023-02-13T08:07:17.560Z,36.05
2023-02-13T08:10:04.117Z,34.08
2023-02-13T08:12:34.180Z,33.35
2023-02-13T08:15:02.383Z,35.42
2023-02-13T08:17:30.402Z,34.07
2023-02-13T08:19:58.777Z,33.87
2023-02-13T08:22:28.228Z,38.10
2023-02-13T08:24:56.340Z,36.57
2023-02-13T08:27:24.384Z,36.83
2023-02-13T08:29:52.562Z,37.40
2023-02-13T08:32:21.441Z,45.97
2023-02-13T08:34:49.570Z,58.27
2023-02-13T08:37:17.936Z,63.17
2023-02-13T08:39:47.352Z,49.50
2023-02-13T08:42:16.290Z,50.17
2023-02-13T08:44:44.644Z,41.43
2023-02-13T08:47:12.739Z,45.30
2023-02-13T08:49:40.847Z,46.93
2023-02-13T08:52:08.928Z,44.60
2023-02-13T08:54:37.075Z,43.20
2023-02-13T08:57:06.566Z,56.73
2023-02-13T08:59:34.573Z,42.17
2023-02-13T09:02:02.638Z,45.20
2023-02-13T09:04:30.966Z,42.87
2023-02-13T09:06:59.062Z,56.73
2023-02-13T09:09:27.125Z,51.00
2023-02-13T09:11:57.811Z,56.60
2023-02-13T09:14:27.230Z,48.60
2023-02-13T09:16:55.423Z,51.50
2023-02-13T09:19:23.689Z,50.50
2023-02-13T09:21:51.762Z,55.03
2023-02-13T09:24:19.806Z,49.83
2023-02-13T09:26:47.997Z,53.47
2023-02-13T09:29:16.290Z,48.83
2023-02-13T09:31:45.849Z,51.60
2023-02-13T09:34:13.935Z,47.50
2023-02-13T09:36:42.027Z,48.27
2023-02-13T09:39:10.930Z,48.97
2023-02-13T09:41:42.483Z,46.80
2023-02-13T09:44:33.800Z,46.53
2023-02-13T09:47:06.623Z,44.90
2023-02-13T09:49:41.320Z,52.70
2023-02-13T09:52:10.807Z,52.27
2023-02-13T09:54:38.863Z,50.10
2023-02-13T09:57:15.641Z,50.43
2023-02-13T09:59:58.140Z,47.53
2023-02-13T10:02:49.434Z,52.87
2023-02-13T10:05:37.036Z,44.93
2023-02-13T10:08:13.446Z,47.93
2023-02-13T10:10:51.177Z,49.17
2023-02-13T10:13:31.240Z,45.87
2023-02-13T10:16:07.564Z,47.40
2023-02-13T10:18:49.175Z,45.50
2023-02-13T10:21:22.835Z,45.67
2023-02-13T10:23:56.062Z,47.20
2023-02-13T10:26:42.439Z,45.07
2023-02-13T10:29:34.103Z,43.20
2023-02-13T10:32:07.186Z,43.37
2023-02-13T10:34:41.505Z,44.30
2023-02-13T10:37:15.790Z,44.70
2023-02-13T10:39:46.328Z,41.67
2023-02-13T10:42:23.845Z,41.20
2023-02-13T10:45:03.390Z,51.43
2023-02-13T10:47:43.067Z,43.77
2023-02-13T10:50:23.888Z,44.87
2023-02-13T10:52:58.277Z,41.50
2023-02-13T10:55:54.220Z,40.13
2023-02-13T10:58:27.478Z,36.37
2023-02-13T11:00:59.848Z,36.57
2023-02-13T11:03:29.655Z,36.47
2023-02-13T11:06:02.322Z,29.47
2023-02-13T11:08:34.745Z,34.53
2023-02-13T11:11:03.004Z,42.20
2023-02-13T11:13:31.802Z,37.17
2023-02-13T11:16:03.803Z,39.87
2023-02-13T11:18:34.971Z,40.53
2023-02-13T11:21:09.845Z,40.03
2023-02-13T11:23:45.121Z,37.80
2023-02-13T11:26:16.558Z,35.70
2023-02-13T11:28:51.913Z,33.50
2023-02-13T11:31:29.836Z,32.47
2023-02-13T11:33:59.403Z,33.90
2023-02-13T11:36:31.122Z,35.70
2023-02-13T11:39:00.933Z,33.53
2023-02-13T11:41:31.116Z,85.97
2023-02-13T11:44:02.350Z,32.27
2023-02-13T11:46:43.977Z,32.00
2023-02-13T11:49:20.073Z,30.00
2023-02-13T11:51:51.200Z,28.60
2023-02-13T11:54:25.546Z,29.73
2023-02-13T11:57:10.868Z,25.03
2023-02-13T11:59:42.432Z,27.43
2023-02-13T12:02:17.659Z,26.13
2023-02-13T12:04:46.282Z,26.43
2023-02-13T12:07:20.363Z,27.63
2023-02-13T12:09:52.376Z,27.63
2023-02-13T12:12:27.147Z,18.20
2023-02-13T12:14:56.782Z,20.10
2023-02-13T12:17:31.834Z,23.17
2023-02-13T12:20:01.212Z,22.80
2023-02-13T12:22:43.403Z,24.90
2023-02-13T12:25:26.810Z,23.23
2023-02-13T12:28:19.218Z,25.53
2023-02-13T12:31:15.467Z,26.57
2023-02-13T12:34:26.542Z,24.67
2023-02-13T12:37:07.799Z,23.90
2023-02-13T12:39:40.265Z,22.33
2023-02-13T12:42:32.731Z,20.87
2023-02-13T12:45:16.923Z,17.80
2023-02-13T12:48:01.947Z,21.10
2023-02-13T12:50:38.526Z,18.50
2023-02-13T12:53:23.869Z,18.87
2023-02-13T12:55:59.162Z,20.93
2023-02-13T12:58:44.769Z,20.93
2023-02-13T13:01:24.139Z,22.10
2023-02-13T13:04:02.541Z,21.00
2023-02-13T13:06:44.873Z,23.53
2023-02-13T13:09:40.709Z,19.20
2023-02-13T13:12:21.175Z,20.00
2023-02-13T13:14:55.479Z,18.90
2023-02-13T13:17:38.872Z,20.53
2023-02-13T13:20:36.464Z,22.47
2023-02-13T13:23:09.814Z,19.93
2023-02-13T13:25:46.337Z,21.30
2023-02-13T13:28:22.055Z,21.03
2023-02-13T13:30:50.874Z,21.23
2023-02-13T13:33:20.937Z,21.73
2023-02-13T13:35:56.672Z,22.90
2023-02-13T13:38:31.928Z,22.00
2023-02-13T13:41:07.089Z,21.00
2023-02-13T13:43:45.114Z,21.90
2023-02-13T13:46:19.716Z,21.17
2023-02-13T13:49:07.214Z,20.90
2023-02-13T13:51:35.301Z,22.33
2023-02-13T13:54:36.855Z,21.90
2023-02-13T13:57:12.774Z,18.87
2023-02-13T14:00:28.696Z,20.90
2023-02-13T14:03:26.219Z,18.53
2023-02-13T14:06:04.669Z,20.30
2023-02-13T14:09:29.282Z,18.87
2023-02-13T14:11:58.521Z,19.33
2023-02-13T14:14:53.862Z,20.57
2023-02-13T14:17:56.624Z,20.40
2023-02-13T14:20:37.537Z,19.53
2023-02-13T14:23:35.788Z,18.93
2023-02-13T14:26:20.060Z,18.67
2023-02-13T14:29:03.881Z,17.00
2023-02-13T14:31:35.529Z,19.43
2023-02-13T14:34:06.496Z,17.70
2023-02-13T14:36:37.861Z,17.67
2023-02-13T14:39:17.482Z,19.73
2023-02-13T14:41:57.698Z,19.23
2023-02-13T14:44:31.494Z,19.50
2023-02-13T14:47:01.208Z,20.37
2023-02-13T14:49:31.606Z,20.77
2023-02-13T14:52:04.127Z,19.77
2023-02-13T14:54:34.569Z,21.67
2023-02-13T14:57:10.124Z,21.80
2023-02-13T14:59:44.215Z,18.77
2023-02-13T15:02:22.167Z,20.60
2023-02-13T15:04:55.030Z,18.37
2023-02-13T15:07:28.899Z,18.37
2023-02-13T15:10:01.320Z,20.70
2023-02-13T15:12:32.176Z,21.23
2023-02-13T15:15:02.385Z,20.33
2023-02-13T15:17:32.844Z,20.33
2023-02-13T15:20:09.832Z,20.50
2023-02-13T15:22:42.714Z,19.87
2023-02-13T15:25:24.331Z,20.03
2023-02-13T15:27:55.258Z,20.17
2023-02-13T15:30:26.286Z,19.80
2023-02-13T15:32:58.850Z,20.50
2023-02-13T15:35:29.315Z,19.30
2023-02-13T15:37:59.285Z,20.07
2023-02-13T15:40:29.637Z,20.00
2023-02-13T15:42:58.661Z,19.37
2023-02-13T15:45:28.898Z,18.37
2023-02-13T15:47:59.075Z,19.97
2023-02-13T15:50:32.582Z,17.30
2023-02-13T15:53:05.801Z,18.93
2023-02-13T15:55:36.677Z,19.33
2023-02-13T15:58:05.282Z,19.00
2023-02-13T16:00:36.447Z,20.07
2023-02-13T16:03:07.946Z,20.70
2023-02-13T16:05:41.507Z,19.20
2023-02-13T16:08:35.359Z,19.30
2023-02-13T16:11:26.062Z,20.33
2023-02-13T16:14:03.628Z,21.10
2023-02-13T16:16:35.850Z,22.33
2023-02-13T16:19:21.227Z,19.87
2023-02-13T16:22:13.242Z,19.30
2023-02-13T16:24:53.977Z,22.73
2023-02-13T16:27:38.705Z,19.53
2023-02-13T16:30:24.414Z,20.47
2023-02-13T16:33:26.106Z,19.70
2023-02-13T16:36:28.768Z,19.50
2023-02-13T16:39:15.872Z,20.73
2023-02-13T16:41:49.548Z,21.10
2023-02-13T16:44:36.756Z,22.30
2023-02-13T16:47:39.031Z,19.70
2023-02-13T16:50:30.597Z,20.40
2023-02-13T16:53:17.774Z,22.50
2023-02-13T16:56:03.350Z,21.87
2023-02-13T16:58:39.582Z,21.23
2023-02-13T17:01:07.840Z,20.80
2023-02-13T17:03:35.892Z,19.63
2023-02-13T17:06:04.659Z,22.70
2023-02-13T17:08:33.039Z,21.07
2023-02-13T17:11:06.077Z,21.70
2023-02-13T17:13:35.954Z,23.77
2023-02-13T17:16:04.098Z,21.63
2023-02-13T17:18:32.170Z,22.50
2023-02-13T17:21:01.355Z,21.87
2023-02-13T17:23:29.662Z,24.73
2023-02-13T17:25:58.493Z,23.73
2023-02-13T17:28:30.261Z,22.83
2023-02-13T17:31:01.681Z,24.00
2023-02-13T17:33:31.585Z,23.60
2023-02-13T17:35:59.648Z,23.13
2023-02-13T17:38:27.796Z,24.20
2023-02-13T17:40:56.291Z,25.67
2023-02-13T17:43:25.333Z,24.80
2023-02-13T17:45:53.429Z,25.73
2023-02-13T17:48:24.033Z,25.83
2023-02-13T17:50:52.654Z,26.27
2023-02-13T17:53:24.950Z,24.20
2023-02-13T17:55:53.326Z,24.70
2023-02-13T17:58:21.392Z,24.97
2023-02-13T18:00:49.672Z,25.50
2023-02-13T18:03:17.737Z,27.23
2023-02-13T18:05:49.099Z,24.33
2023-02-13T18:08:17.985Z,26.53
2023-02-13T18:10:46.098Z,23.60
2023-02-13T18:13:14.506Z,24.63
2023-02-13T18:15:44.698Z,26.57
2023-02-13T18:18:15.147Z,24.47
2023-02-13T18:20:43.402Z,25.27
2023-02-13T18:23:13.967Z,27.90
2023-02-13T18:25:42.168Z,24.70
2023-02-13T18:28:10.182Z,26.07
2023-02-13T18:30:38.291Z,26.83
2023-02-13T18:33:06.639Z,27.60
2023-02-13T18:35:36.567Z,24.70
2023-02-13T18:38:04.675Z,23.13
2023-02-13T18:40:34.167Z,23.17
2023-02-13T18:43:02.219Z,23.30
2023-02-13T18:45:30.747Z,24.73
2023-02-13T18:47:58.775Z,23.47
2023-02-13T18:50:26.882Z,23.57
2023-02-13T18:52:55.097Z,23.13
2023-02-13T18:55:23.257Z,22.90
2023-02-13T18:57:54.579Z,20.20
2023-02-13T19:00:23.581Z,23.37
2023-02-13T19:02:51.741Z,21.00
2023-02-13T19:05:20.343Z,22.23
2023-02-13T19:07:48.421Z,22.40
2023-02-13T19:10:16.639Z,21.60
2023-02-13T19:12:44.690Z,20.27
2023-02-13T19:15:14.200Z,20.60
2023-02-13T19:17:42.277Z,22.57
2023-02-13T19:20:11.191Z,21.47
2023-02-13T19:22:39.346Z,22.80
2023-02-13T19:25:07.842Z,20.07
2023-02-13T19:27:38.580Z,20.50
2023-02-13T19:30:09.511Z,21.60
2023-02-13T19:32:39.082Z,25.10
2023-02-13T19:35:07.853Z,22.30
2023-02-13T19:37:43.712Z,21.30
2023-02-13T19:40:14.235Z,22.30
2023-02-13T19:42:42.274Z,21.80
2023-02-13T19:45:11.395Z,21.40
2023-02-13T19:47:40.807Z,22.57
2023-02-13T19:50:09.800Z,20.30
2023-02-13T19:52:38.068Z,22.47
2023-02-13T19:55:06.623Z,21.80
2023-02-13T19:57:34.903Z,23.90
2023-02-13T20:00:04.705Z,22.30
2023-02-13T20:02:32.771Z,22.37
2023-02-13T20:05:06.959Z,22.50
2023-02-13T20:07:35.066Z,21.03
2023-02-13T20:10:03.218Z,23.13
2023-02-13T20:12:31.259Z,20.80
2023-02-13T20:14:59.361Z,22.70
2023-02-13T20:17:27.425Z,22.30
2023-02-13T20:19:55.904Z,22.90
2023-02-13T20:22:25.338Z,23.17
2023-02-13T20:24:53.460Z,23.90
2023-02-13T20:27:21.581Z,21.13
2023-02-13T20:29:50.219Z,20.07
2023-02-13T20:32:19.495Z,18.80
2023-02-13T20:34:59.647Z,22.50
2023-02-13T20:37:29.371Z,20.93
2023-02-13T20:39:57.416Z,22.80
2023-02-13T20:42:25.773Z,32.20
2023-02-13T20:44:53.804Z,20.40
2023-02-13T20:47:21.906Z,24.37
2023-02-13T20:49:49.929Z,23.40
2023-02-13T20:52:18.022Z,22.00
2023-02-13T20:54:47.784Z,31.00
2023-02-13T20:57:16.047Z,27.10
2023-02-13T20:59:44.827Z,20.80
2023-02-13T21:02:13.622Z,21.43
2023-02-13T21:04:41.711Z,19.50
2023-02-13T21:07:10.147Z,20.83
2023-02-13T21:09:38.321Z,20.93
2023-02-13T21:12:08.034Z,21.47
2023-02-13T21:14:36.247Z,20.93
2023-02-13T21:17:04.406Z,19.53
2023-02-13T21:19:32.444Z,19.87
2023-02-13T21:22:11.156Z,21.70
2023-02-13T21:24:41.395Z,20.00
2023-02-13T21:27:11.739Z,21.50
2023-02-13T21:29:40.030Z,20.93
2023-02-13T21:32:08.136Z,18.90
2023-02-13T21:34:36.298Z,21.95
2023-02-13T21:37:04.374Z,20.40
2023-02-13T21:39:32.457Z,19.93
2023-02-13T21:42:00.669Z,22.70
2023-02-13T21:44:30.084Z,19.67
2023-02-13T21:46:58.181Z,19.70
2023-02-13T21:49:26.363Z,22.20
2023-02-13T21:51:54.404Z,22.30
2023-02-13T21:54:22.477Z,17.97
2023-02-13T21:56:50.579Z,20.20
2023-02-13T21:59:18.862Z,20.53
2023-02-13T22:01:51.148Z,18.70
2023-02-13T22:04:19.626Z,20.52
2023-02-13T22:06:50.940Z,21.23
2023-02-13T22:09:20.477Z,19.83
2023-02-13T22:11:50.445Z,19.92
2023-02-13T22:14:19.777Z,19.60
2023-02-13T22:16:51.948Z,19.35
2023-02-13T22:19:20.580Z,21.98
2023-02-13T22:21:48.852Z,19.75
2023-02-13T22:24:17.020Z,20.75
2023-02-13T22:26:46.272Z,21.63
2023-02-13T22:29:16.326Z,19.95
2023-02-13T22:31:44.771Z,20.53
2023-02-13T22:34:14.822Z,20.90
2023-02-13T22:36:43.072Z,22.08
2023-02-13T22:39:12.592Z,19.73
2023-02-13T22:41:41.090Z,20.17
2023-02-13T22:44:09.179Z,21.02
2023-02-13T22:46:37.287Z,19.95
2023-02-13T22:49:05.430Z,19.70
2023-02-13T22:51:36.763Z,20.80
2023-02-13T22:54:05.237Z,20.75
2023-02-13T22:56:34.127Z,20.23
2023-02-13T22:59:02.324Z,22.27
2023-02-13T23:01:30.902Z,20.37
2023-02-13T23:03:59.248Z,21.08
2023-02-13T23:06:28.530Z,18.20
2023-02-13T23:08:58.394Z,18.95
2023-02-13T23:11:45.831Z,18.70
2023-02-13T23:14:14.645Z,18.83
2023-02-13T23:17:01.154Z,19.75
2023-02-13T23:19:30.651Z,17.30
2023-02-13T23:21:58.849Z,20.15
2023-02-13T23:24:28.836Z,21.10
2023-02-13T23:26:56.940Z,19.85
2023-02-13T23:29:25.098Z,20.48
2023-02-13T23:31:53.404Z,21.52
2023-02-13T23:34:21.568Z,18.40
2023-02-13T23:36:49.821Z,18.92
2023-02-13T23:39:17.896Z,18.02
2023-02-13T23:41:47.364Z,20.52
2023-02-13T23:44:15.407Z,18.85
2023-02-13T23:46:43.504Z,18.50
2023-02-13T23:49:11.636Z,21.13
2023-02-13T23:51:39.774Z,20.23
2023-02-13T23:54:07.816Z,21.33
2023-02-13T23:56:35.900Z,19.05
2023-02-13T23:59:05.295Z,19.05
